ADDS TAF Data INFO
IDs: Format: Raw Decoded Include METARs

Data at: 1054 UTC 30 Mar 2017

TAF for:KAUS (Austin/Bergstrom Int, TX, US) issued at 0520 UTC 30 Mar 2017
Text:KAUS 300520Z 3006/3112 32013G23KT P6SM SKC
Forecast period:0600 to 0900 UTC 30 March 2017
Forecast type:FROM: standard forecast or significant change
Winds:from the NW (320 degrees) at 15 MPH (13 knots; 6.7 m/s) gusting to 26 MPH (23 knots; 11.8 m/s)
Visibility:6 or more sm (10+ km)
Ceiling:at least 12,000 feet AGL
Clouds:clear skies
Text:FM300900 32010KT P6SM SKC
Forecast period:0900 to 2100 UTC 30 March 2017
Forecast type:FROM: standard forecast or significant change
Winds:from the NW (320 degrees) at 12 MPH (10 knots; 5.1 m/s)
Visibility:6 or more sm (10+ km)
Ceiling:at least 12,000 feet AGL
Clouds:clear skies
Text:FM302100 21005KT P6SM SKC
Forecast period:2100 UTC 30 March 2017 to 1200 UTC 31 March 2017
Forecast type:FROM: standard forecast or significant change
Winds:from the SSW (210 degrees) at 6 MPH (5 knots; 2.6 m/s)
Visibility:6 or more sm (10+ km)
Ceiling:at least 12,000 feet AGL
Clouds:clear skies


Page loaded:  10:54 UTC  |   03:54 AM Pacific  |   04:54 AM Mountain  |   05:54 AM Central  |   06:54 AM Eastern

 

ADVISORIES

FORECASTS

FORECASTS

OBSERVATIONS

USER TOOLS

ABOUT US